sensor_id;sensor_type;location;lat;lon;timestamp;temperature;humidity
13982;DHT22;7065;50.880;5.502;2022-11-11T00:01:03;8.60;99.90
13982;DHT22;7065;50.880;5.502;2022-11-11T00:03:29;8.60;99.90
13982;DHT22;7065;50.880;5.502;2022-11-11T00:06:01;8.50;99.90
13982;DHT22;7065;50.880;5.502;2022-11-11T00:08:26;8.50;99.90
13982;DHT22;7065;50.880;5.502;2022-11-11T00:10:52;8.50;99.90
13982;DHT22;7065;50.880;5.502;2022-11-11T00:13:18;8.40;99.90
13982;DHT22;7065;50.880;5.502;2022-11-11T00:15:43;8.40;99.90
13982;DHT22;7065;50.880;5.502;2022-11-11T00:18:10;8.40;99.90
13982;DHT22;7065;50.880;5.502;2022-11-11T00:20:57;8.40;99.90
13982;DHT22;7065;50.880;5.502;2022-11-11T00:23:52;8.40;99.90
13982;DHT22;7065;50.880;5.502;2022-11-11T00:26:36;8.30;99.90
13982;DHT22;7065;50.880;5.502;2022-11-11T00:29:02;8.30;99.90
13982;DHT22;7065;50.880;5.502;2022-11-11T00:31:28;8.40;99.90
13982;DHT22;7065;50.880;5.502;2022-11-11T00:33:53;8.30;99.90
13982;DHT22;7065;50.880;5.502;2022-11-11T00:36:20;8.30;99.90
13982;DHT22;7065;50.880;5.502;2022-11-11T00:38:45;8.30;99.90
13982;DHT22;7065;50.880;5.502;2022-11-11T00:41:16;8.30;99.90
13982;DHT22;7065;50.880;5.502;2022-11-11T00:43:43;8.20;99.90
13982;DHT22;7065;50.880;5.502;2022-11-11T00:46:10;8.20;99.90
13982;DHT22;7065;50.880;5.502;2022-11-11T00:48:54;8.10;99.90
13982;DHT22;7065;50.880;5.502;2022-11-11T00:51:39;8.00;99.90
13982;DHT22;7065;50.880;5.502;2022-11-11T00:54:05;7.90;99.90
13982;DHT22;7065;50.880;5.502;2022-11-11T00:56:31;7.80;99.90
13982;DHT22;7065;50.880;5.502;2022-11-11T00:58:57;7.80;99.90
13982;DHT22;7065;50.880;5.502;2022-11-11T01:01:23;7.70;99.90
13982;DHT22;7065;50.880;5.502;2022-11-11T01:03:49;7.70;99.90
13982;DHT22;7065;50.880;5.502;2022-11-11T01:06:15;7.70;99.90
13982;DHT22;7065;50.880;5.502;2022-11-11T01:08:41;7.70;99.90
13982;DHT22;7065;50.880;5.502;2022-11-11T01:11:15;7.60;99.90
13982;DHT22;7065;50.880;5.502;2022-11-11T01:13:42;7.50;99.90
13982;DHT22;7065;50.880;5.502;2022-11-11T01:16:15;7.50;99.90
13982;DHT22;7065;50.880;5.502;2022-11-11T01:18:41;7.40;99.90
13982;DHT22;7065;50.880;5.502;2022-11-11T01:23:37;7.20;99.90
13982;DHT22;7065;50.880;5.502;2022-11-11T01:26:21;7.20;99.90
13982;DHT22;7065;50.880;5.502;2022-11-11T01:28:51;7.10;99.90
13982;DHT22;7065;50.880;5.502;2022-11-11T01:31:18;7.10;99.90
13982;DHT22;7065;50.880;5.502;2022-11-11T01:33:44;7.10;99.90
13982;DHT22;7065;50.880;5.502;2022-11-11T01:36:13;7.00;99.90
13982;DHT22;7065;50.880;5.502;2022-11-11T01:38:39;7.00;99.90
13982;DHT22;7065;50.880;5.502;2022-11-11T01:41:09;6.90;99.90
13982;DHT22;7065;50.880;5.502;2022-11-11T01:43:53;6.80;99.90
13982;DHT22;7065;50.880;5.502;2022-11-11T01:46:30;6.70;99.90
13982;DHT22;7065;50.880;5.502;2022-11-11T01:55:12;6.60;99.90
13982;DHT22;7065;50.880;5.502;2022-11-11T01:57:52;6.60;99.90
13982;DHT22;7065;50.880;5.502;2022-11-11T02:00:19;6.50;99.90
13982;DHT22;7065;50.880;5.502;2022-11-11T02:05:16;6.40;99.90
13982;DHT22;7065;50.880;5.502;2022-11-11T02:08:08;6.40;99.90
13982;DHT22;7065;50.880;5.502;2022-11-11T02:10:37;6.40;99.90
13982;DHT22;7065;50.880;5.502;2022-11-11T02:13:07;6.40;99.90
13982;DHT22;7065;50.880;5.502;2022-11-11T02:15:55;6.40;99.90
13982;DHT22;7065;50.880;5.502;2022-11-11T02:18:20;6.30;99.90
13982;DHT22;7065;50.880;5.502;2022-11-11T02:20:46;6.30;99.90
13982;DHT22;7065;50.880;5.502;2022-11-11T02:23:26;6.20;99.90
13982;DHT22;7065;50.880;5.502;2022-11-11T02:25:53;6.10;99.90
13982;DHT22;7065;50.880;5.502;2022-11-11T02:28:22;6.10;99.90
13982;DHT22;7065;50.880;5.502;2022-11-11T02:30:48;6.10;99.90
13982;DHT22;7065;50.880;5.502;2022-11-11T02:33:14;6.10;99.90
13982;DHT22;7065;50.880;5.502;2022-11-11T02:35:44;6.10;99.90
13982;DHT22;7065;50.880;5.502;2022-11-11T02:38:11;6.20;99.90
13982;DHT22;7065;50.880;5.502;2022-11-11T02:40:42;6.20;99.90
13982;DHT22;7065;50.880;5.502;2022-11-11T02:43:30;6.20;99.90
13982;DHT22;7065;50.880;5.502;2022-11-11T02:45:57;6.20;99.90
13982;DHT22;7065;50.880;5.502;2022-11-11T02:48:24;6.10;99.90
13982;DHT22;7065;50.880;5.502;2022-11-11T02:50:50;6.10;99.90
13982;DHT22;7065;50.880;5.502;2022-11-11T02:53:16;6.10;99.90
13982;DHT22;7065;50.880;5.502;2022-11-11T02:55:41;6.10;99.90
13982;DHT22;7065;50.880;5.502;2022-11-11T02:58:07;6.10;99.90
13982;DHT22;7065;50.880;5.502;2022-11-11T03:00:33;6.00;99.90
13982;DHT22;7065;50.880;5.502;2022-11-11T03:02:59;5.90;99.90
13982;DHT22;7065;50.880;5.502;2022-11-11T03:05:25;5.90;99.90
13982;DHT22;7065;50.880;5.502;2022-11-11T03:07:50;5.80;99.90
13982;DHT22;7065;50.880;5.502;2022-11-11T03:10:16;5.70;99.90
13982;DHT22;7065;50.880;5.502;2022-11-11T03:12:42;5.70;99.90
13982;DHT22;7065;50.880;5.502;2022-11-11T03:15:09;5.70;99.90
13982;DHT22;7065;50.880;5.502;2022-11-11T03:17:35;5.60;99.90
13982;DHT22;7065;50.880;5.502;2022-11-11T03:20:06;5.50;99.90
13982;DHT22;7065;50.880;5.502;2022-11-11T03:23:03;5.50;99.90
13982;DHT22;7065;50.880;5.502;2022-11-11T03:25:30;5.50;99.90
13982;DHT22;7065;50.880;5.502;2022-11-11T03:28:14;5.60;99.90
13982;DHT22;7065;50.880;5.502;2022-11-11T03:30:42;5.60;99.90
13982;DHT22;7065;50.880;5.502;2022-11-11T03:33:08;5.60;99.90
13982;DHT22;7065;50.880;5.502;2022-11-11T03:35:35;5.60;99.90
13982;DHT22;7065;50.880;5.502;2022-11-11T03:38:01;5.60;99.90
13982;DHT22;7065;50.880;5.502;2022-11-11T03:40:55;5.60;99.90
13982;DHT22;7065;50.880;5.502;2022-11-11T03:43:24;5.60;99.90
13982;DHT22;7065;50.880;5.502;2022-11-11T03:45:52;5.50;99.90
13982;DHT22;7065;50.880;5.502;2022-11-11T03:48:17;5.40;99.90
13982;DHT22;7065;50.880;5.502;2022-11-11T03:50:43;5.30;99.90
13982;DHT22;7065;50.880;5.502;2022-11-11T03:53:13;5.20;99.90
13982;DHT22;7065;50.880;5.502;2022-11-11T03:55:40;5.10;99.90
13982;DHT22;7065;50.880;5.502;2022-11-11T03:58:06;5.10;99.90
13982;DHT22;7065;50.880;5.502;2022-11-11T04:00:33;5.00;99.90
13982;DHT22;7065;50.880;5.502;2022-11-11T04:03:04;5.00;99.90
13982;DHT22;7065;50.880;5.502;2022-11-11T04:05:48;5.00;99.90
13982;DHT22;7065;50.880;5.502;2022-11-11T04:08:32;5.10;99.90
13982;DHT22;7065;50.880;5.502;2022-11-11T04:11:24;5.10;99.90
13982;DHT22;7065;50.880;5.502;2022-11-11T04:13:52;5.10;99.90
13982;DHT22;7065;50.880;5.502;2022-11-11T04:16:38;5.10;99.90
13982;DHT22;7065;50.880;5.502;2022-11-11T04:19:04;5.10;99.90
13982;DHT22;7065;50.880;5.502;2022-11-11T04:21:48;5.10;99.90
13982;DHT22;7065;50.880;5.502;2022-11-11T04:24:16;5.10;99.90
13982;DHT22;7065;50.880;5.502;2022-11-11T04:27:03;5.20;99.90
13982;DHT22;7065;50.880;5.502;2022-11-11T04:29:29;5.30;99.90
13982;DHT22;7065;50.880;5.502;2022-11-11T04:32:02;5.50;99.90
13982;DHT22;7065;50.880;5.502;2022-11-11T04:34:55;5.70;99.90
13982;DHT22;7065;50.880;5.502;2022-11-11T04:37:22;5.90;99.90
13982;DHT22;7065;50.880;5.502;2022-11-11T04:39:48;6.10;99.90
13982;DHT22;7065;50.880;5.502;2022-11-11T04:42:33;6.30;99.90
13982;DHT22;7065;50.880;5.502;2022-11-11T04:44:59;6.30;99.90
13982;DHT22;7065;50.880;5.502;2022-11-11T04:48:03;6.40;99.90
13982;DHT22;7065;50.880;5.502;2022-11-11T04:50:34;6.40;99.90
13982;DHT22;7065;50.880;5.502;2022-11-11T04:53:01;6.60;99.90
13982;DHT22;7065;50.880;5.502;2022-11-11T04:55:27;6.60;99.90
13982;DHT22;7065;50.880;5.502;2022-11-11T04:58:12;6.70;99.90
13982;DHT22;7065;50.880;5.502;2022-11-11T05:00:38;6.70;99.90
13982;DHT22;7065;50.880;5.502;2022-11-11T05:03:05;6.60;99.90
13982;DHT22;7065;50.880;5.502;2022-11-11T05:05:51;6.60;99.90
13982;DHT22;7065;50.880;5.502;2022-11-11T05:08:38;6.60;99.90
13982;DHT22;7065;50.880;5.502;2022-11-11T05:13:53;6.60;99.90
13982;DHT22;7065;50.880;5.502;2022-11-11T05:16:47;6.60;99.90
13982;DHT22;7065;50.880;5.502;2022-11-11T05:19:31;6.70;99.90
13982;DHT22;7065;50.880;5.502;2022-11-11T05:24:44;6.80;99.90
13982;DHT22;7065;50.880;5.502;2022-11-11T05:27:28;6.80;99.90
13982;DHT22;7065;50.880;5.502;2022-11-11T05:29:54;6.80;99.90
13982;DHT22;7065;50.880;5.502;2022-11-11T05:32:22;6.90;99.90
13982;DHT22;7065;50.880;5.502;2022-11-11T05:34:48;7.00;99.90
13982;DHT22;7065;50.880;5.502;2022-11-11T05:37:13;7.10;99.90
13982;DHT22;7065;50.880;5.502;2022-11-11T05:39:39;7.10;99.90
13982;DHT22;7065;50.880;5.502;2022-11-11T05:42:05;7.20;99.90
13982;DHT22;7065;50.880;5.502;2022-11-11T05:44:31;7.20;99.90
13982;DHT22;7065;50.880;5.502;2022-11-11T05:46:57;7.20;99.90
13982;DHT22;7065;50.880;5.502;2022-11-11T05:49:23;7.20;99.90
13982;DHT22;7065;50.880;5.502;2022-11-11T05:51:50;7.30;99.90
13982;DHT22;7065;50.880;5.502;2022-11-11T05:54:16;7.20;99.90
13982;DHT22;7065;50.880;5.502;2022-11-11T05:56:42;7.30;99.90
13982;DHT22;7065;50.880;5.502;2022-11-11T05:59:08;7.30;99.90
13982;DHT22;7065;50.880;5.502;2022-11-11T06:01:34;7.30;99.90
13982;DHT22;7065;50.880;5.502;2022-11-11T06:04:01;7.30;99.90
13982;DHT22;7065;50.880;5.502;2022-11-11T06:06:27;7.40;99.90
13982;DHT22;7065;50.880;5.502;2022-11-11T06:08:53;7.30;99.90
13982;DHT22;7065;50.880;5.502;2022-11-11T06:11:19;7.30;99.90
13982;DHT22;7065;50.880;5.502;2022-11-11T06:13:45;7.40;99.90
13982;DHT22;7065;50.880;5.502;2022-11-11T06:16:10;7.40;99.90
13982;DHT22;7065;50.880;5.502;2022-11-11T06:18:36;7.40;99.90
13982;DHT22;7065;50.880;5.502;2022-11-11T06:21:02;7.50;99.90
13982;DHT22;7065;50.880;5.502;2022-11-11T06:23:28;7.40;99.90
13982;DHT22;7065;50.880;5.502;2022-11-11T06:25:54;7.50;99.90
13982;DHT22;7065;50.880;5.502;2022-11-11T06:28:50;7.50;99.90
13982;DHT22;7065;50.880;5.502;2022-11-11T06:31:20;7.50;99.90
13982;DHT22;7065;50.880;5.502;2022-11-11T06:33:46;7.60;99.90
13982;DHT22;7065;50.880;5.502;2022-11-11T06:36:14;7.60;99.90
13982;DHT22;7065;50.880;5.502;2022-11-11T06:38:41;7.50;99.90
13982;DHT22;7065;50.880;5.502;2022-11-11T06:41:07;7.50;99.90
13982;DHT22;7065;50.880;5.502;2022-11-11T06:43:34;7.50;99.90
13982;DHT22;7065;50.880;5.502;2022-11-11T06:46:01;7.50;99.90
13982;DHT22;7065;50.880;5.502;2022-11-11T06:48:28;7.50;99.90
13982;DHT22;7065;50.880;5.502;2022-11-11T06:50:54;7.50;99.90
13982;DHT22;7065;50.880;5.502;2022-11-11T06:53:21;7.50;99.90
13982;DHT22;7065;50.880;5.502;2022-11-11T06:55:47;7.50;99.90
13982;DHT22;7065;50.880;5.502;2022-11-11T06:58:17;7.50;99.90
13982;DHT22;7065;50.880;5.502;2022-11-11T07:00:44;7.50;99.90
13982;DHT22;7065;50.880;5.502;2022-11-11T07:03:12;7.50;99.90
13982;DHT22;7065;50.880;5.502;2022-11-11T07:05:39;7.50;99.90
13982;DHT22;7065;50.880;5.502;2022-11-11T07:08:07;7.50;99.90
13982;DHT22;7065;50.880;5.502;2022-11-11T07:10:34;7.60;99.90
13982;DHT22;7065;50.880;5.502;2022-11-11T07:13:01;7.60;99.90
13982;DHT22;7065;50.880;5.502;2022-11-11T07:15:27;7.60;99.90
13982;DHT22;7065;50.880;5.502;2022-11-11T07:17:52;7.60;99.90
13982;DHT22;7065;50.880;5.502;2022-11-11T07:20:18;7.60;99.90
13982;DHT22;7065;50.880;5.502;2022-11-11T07:22:44;7.60;99.90
13982;DHT22;7065;50.880;5.502;2022-11-11T07:25:10;7.60;99.90
13982;DHT22;7065;50.880;5.502;2022-11-11T07:27:39;7.60;99.90
13982;DHT22;7065;50.880;5.502;2022-11-11T07:30:06;7.60;99.90
13982;DHT22;7065;50.880;5.502;2022-11-11T07:32:32;7.60;99.90
13982;DHT22;7065;50.880;5.502;2022-11-11T07:34:58;7.70;99.90
13982;DHT22;7065;50.880;5.502;2022-11-11T07:37:24;7.70;99.90
13982;DHT22;7065;50.880;5.502;2022-11-11T07:39:50;7.70;99.90
13982;DHT22;7065;50.880;5.502;2022-11-11T07:42:16;7.80;99.90
13982;DHT22;7065;50.880;5.502;2022-11-11T07:44:42;7.80;99.90
13982;DHT22;7065;50.880;5.502;2022-11-11T07:47:08;7.80;99.90
13982;DHT22;7065;50.880;5.502;2022-11-11T07:49:33;7.90;99.90
13982;DHT22;7065;50.880;5.502;2022-11-11T07:51:59;7.90;99.90
13982;DHT22;7065;50.880;5.502;2022-11-11T07:54:25;8.00;99.90
13982;DHT22;7065;50.880;5.502;2022-11-11T07:56:51;8.00;99.90
13982;DHT22;7065;50.880;5.502;2022-11-11T07:59:16;8.10;99.90
13982;DHT22;7065;50.880;5.502;2022-11-11T08:01:42;8.10;99.90
13982;DHT22;7065;50.880;5.502;2022-11-11T08:04:08;8.10;99.90
13982;DHT22;7065;50.880;5.502;2022-11-11T08:06:33;8.20;99.90
13982;DHT22;7065;50.880;5.502;2022-11-11T08:08:59;8.20;99.90
13982;DHT22;7065;50.880;5.502;2022-11-11T08:11:25;8.30;99.90
13982;DHT22;7065;50.880;5.502;2022-11-11T08:14:09;8.30;99.90
13982;DHT22;7065;50.880;5.502;2022-11-11T08:16:34;8.40;99.90
13982;DHT22;7065;50.880;5.502;2022-11-11T08:19:00;8.50;99.90
13982;DHT22;7065;50.880;5.502;2022-11-11T08:21:26;8.50;99.90
13982;DHT22;7065;50.880;5.502;2022-11-11T08:23:53;8.60;99.90
13982;DHT22;7065;50.880;5.502;2022-11-11T08:26:20;8.60;99.90
13982;DHT22;7065;50.880;5.502;2022-11-11T08:28:46;8.60;99.90
13982;DHT22;7065;50.880;5.502;2022-11-11T08:31:12;8.70;99.90
13982;DHT22;7065;50.880;5.502;2022-11-11T08:33:38;8.70;99.90
13982;DHT22;7065;50.880;5.502;2022-11-11T08:36:04;8.70;99.90
13982;DHT22;7065;50.880;5.502;2022-11-11T08:38:32;8.80;99.90
13982;DHT22;7065;50.880;5.502;2022-11-11T08:41:02;8.80;99.90
13982;DHT22;7065;50.880;5.502;2022-11-11T08:43:29;8.80;99.90
13982;DHT22;7065;50.880;5.502;2022-11-11T08:45:57;8.90;99.90
13982;DHT22;7065;50.880;5.502;2022-11-11T08:48:23;9.10;99.90
13982;DHT22;7065;50.880;5.502;2022-11-11T08:50:51;9.10;99.90
13982;DHT22;7065;50.880;5.502;2022-11-11T08:53:17;9.10;99.90
13982;DHT22;7065;50.880;5.502;2022-11-11T08:55:42;9.20;99.90
13982;DHT22;7065;50.880;5.502;2022-11-11T08:58:09;9.20;99.90
13982;DHT22;7065;50.880;5.502;2022-11-11T09:00:35;9.30;99.90
13982;DHT22;7065;50.880;5.502;2022-11-11T09:03:04;9.30;99.90
13982;DHT22;7065;50.880;5.502;2022-11-11T09:05:31;9.30;99.90
13982;DHT22;7065;50.880;5.502;2022-11-11T09:08:00;9.40;99.90
13982;DHT22;7065;50.880;5.502;2022-11-11T09:10:25;9.50;99.90
13982;DHT22;7065;50.880;5.502;2022-11-11T09:12:58;9.50;99.90
13982;DHT22;7065;50.880;5.502;2022-11-11T09:15:24;9.50;99.90
13982;DHT22;7065;50.880;5.502;2022-11-11T09:17:51;9.60;99.90
13982;DHT22;7065;50.880;5.502;2022-11-11T09:20:16;9.70;99.90
13982;DHT22;7065;50.880;5.502;2022-11-11T09:22:44;9.80;99.90
13982;DHT22;7065;50.880;5.502;2022-11-11T09:25:10;9.80;99.90
13982;DHT22;7065;50.880;5.502;2022-11-11T09:27:37;9.90;99.90
13982;DHT22;7065;50.880;5.502;2022-11-11T09:30:03;9.80;99.90
13982;DHT22;7065;50.880;5.502;2022-11-11T09:32:30;10.00;99.90
13982;DHT22;7065;50.880;5.502;2022-11-11T09:34:55;10.00;99.90
13982;DHT22;7065;50.880;5.502;2022-11-11T09:37:21;10.00;99.90
13982;DHT22;7065;50.880;5.502;2022-11-11T09:39:47;10.10;99.90
13982;DHT22;7065;50.880;5.502;2022-11-11T09:45:04;10.20;99.90
13982;DHT22;7065;50.880;5.502;2022-11-11T09:50:23;10.30;99.90
13982;DHT22;7065;50.880;5.502;2022-11-11T09:55:42;10.50;99.90
13982;DHT22;7065;50.880;5.502;2022-11-11T09:58:27;10.60;99.90
13982;DHT22;7065;50.880;5.502;2022-11-11T10:01:26;10.60;99.90
13982;DHT22;7065;50.880;5.502;2022-11-11T10:06:34;10.60;99.90
13982;DHT22;7065;50.880;5.502;2022-11-11T10:09:21;10.60;99.90
13982;DHT22;7065;50.880;5.502;2022-11-11T10:12:14;10.70;99.90
13982;DHT22;7065;50.880;5.502;2022-11-11T10:14:49;10.70;99.90
13982;DHT22;7065;50.880;5.502;2022-11-11T10:20:17;10.90;99.90
13982;DHT22;7065;50.880;5.502;2022-11-11T10:22:47;11.00;99.90
13982;DHT22;7065;50.880;5.502;2022-11-11T10:25:26;11.00;99.90
13982;DHT22;7065;50.880;5.502;2022-11-11T10:27:55;11.10;99.90
13982;DHT22;7065;50.880;5.502;2022-11-11T10:30:28;11.10;99.90
13982;DHT22;7065;50.880;5.502;2022-11-11T10:33:00;11.20;99.90
13982;DHT22;7065;50.880;5.502;2022-11-11T10:35:28;11.20;99.90
13982;DHT22;7065;50.880;5.502;2022-11-11T10:40:49;11.30;99.90
13982;DHT22;7065;50.880;5.502;2022-11-11T10:43:27;11.40;99.90
13982;DHT22;7065;50.880;5.502;2022-11-11T10:51:13;11.50;99.90
13982;DHT22;7065;50.880;5.502;2022-11-11T10:54:11;11.60;99.90
13982;DHT22;7065;50.880;5.502;2022-11-11T10:57:02;11.60;99.90
13982;DHT22;7065;50.880;5.502;2022-11-11T10:59:38;11.60;99.90
13982;DHT22;7065;50.880;5.502;2022-11-11T11:04:51;11.80;99.90
13982;DHT22;7065;50.880;5.502;2022-11-11T11:07:26;11.90;99.90
13982;DHT22;7065;50.880;5.502;2022-11-11T11:10:07;11.90;99.90
13982;DHT22;7065;50.880;5.502;2022-11-11T11:15:31;11.90;99.90
13982;DHT22;7065;50.880;5.502;2022-11-11T11:18:13;11.90;99.90
13982;DHT22;7065;50.880;5.502;2022-11-11T11:21:00;12.00;99.90
13982;DHT22;7065;50.880;5.502;2022-11-11T11:23:42;12.00;99.90
13982;DHT22;7065;50.880;5.502;2022-11-11T11:26:12;12.00;99.90
13982;DHT22;7065;50.880;5.502;2022-11-11T11:28:58;12.10;99.90
13982;DHT22;7065;50.880;5.502;2022-11-11T11:31:35;12.10;99.90
13982;DHT22;7065;50.880;5.502;2022-11-11T11:34:02;12.10;99.90
13982;DHT22;7065;50.880;5.502;2022-11-11T11:36:28;12.20;99.90
13982;DHT22;7065;50.880;5.502;2022-11-11T11:38:53;12.20;99.90
13982;DHT22;7065;50.880;5.502;2022-11-11T11:44:24;12.30;99.90
13982;DHT22;7065;50.880;5.502;2022-11-11T11:46:53;12.40;99.90
13982;DHT22;7065;50.880;5.502;2022-11-11T12:00:30;12.70;99.90
13982;DHT22;7065;50.880;5.502;2022-11-11T12:03:19;12.70;99.90
13982;DHT22;7065;50.880;5.502;2022-11-11T12:06:08;12.80;99.90
13982;DHT22;7065;50.880;5.502;2022-11-11T12:08:51;12.90;99.90
13982;DHT22;7065;50.880;5.502;2022-11-11T12:17:56;13.10;99.90
13982;DHT22;7065;50.880;5.502;2022-11-11T12:22:59;13.30;99.90
13982;DHT22;7065;50.880;5.502;2022-11-11T12:25:42;13.30;99.90
13982;DHT22;7065;50.880;5.502;2022-11-11T12:28:19;13.40;99.90
13982;DHT22;7065;50.880;5.502;2022-11-11T12:33:37;13.40;99.90
13982;DHT22;7065;50.880;5.502;2022-11-11T12:36:14;13.50;99.90
13982;DHT22;7065;50.880;5.502;2022-11-11T12:39:04;13.60;99.90
13982;DHT22;7065;50.880;5.502;2022-11-11T12:44:11;13.60;99.90
13982;DHT22;7065;50.880;5.502;2022-11-11T12:55:02;13.90;99.90
13982;DHT22;7065;50.880;5.502;2022-11-11T13:00:19;13.90;99.90
13982;DHT22;7065;50.880;5.502;2022-11-11T13:03:05;14.00;99.90
13982;DHT22;7065;50.880;5.502;2022-11-11T13:05:58;14.10;99.90
13982;DHT22;7065;50.880;5.502;2022-11-11T13:16:54;14.30;99.90
13982;DHT22;7065;50.880;5.502;2022-11-11T13:21:58;14.40;99.90
13982;DHT22;7065;50.880;5.502;2022-11-11T13:24:27;14.30;99.90
13982;DHT22;7065;50.880;5.502;2022-11-11T13:27:03;14.30;99.90
13982;DHT22;7065;50.880;5.502;2022-11-11T13:29:58;14.30;99.90
13982;DHT22;7065;50.880;5.502;2022-11-11T13:32:48;14.40;99.90
13982;DHT22;7065;50.880;5.502;2022-11-11T13:35:23;14.40;99.90
13982;DHT22;7065;50.880;5.502;2022-11-11T13:37:51;14.30;99.90
13982;DHT22;7065;50.880;5.502;2022-11-11T13:42:58;14.50;99.90
13982;DHT22;7065;50.880;5.502;2022-11-11T13:45:33;14.50;99.90
13982;DHT22;7065;50.880;5.502;2022-11-11T13:48:00;14.50;99.90
13982;DHT22;7065;50.880;5.502;2022-11-11T13:50:35;14.40;99.90
13982;DHT22;7065;50.880;5.502;2022-11-11T13:53:11;14.40;99.90
13982;DHT22;7065;50.880;5.502;2022-11-11T13:55:40;14.40;99.90
13982;DHT22;7065;50.880;5.502;2022-11-11T13:58:16;14.40;99.90
13982;DHT22;7065;50.880;5.502;2022-11-11T14:00:45;14.40;99.90
13982;DHT22;7065;50.880;5.502;2022-11-11T14:05:44;14.30;99.90
13982;DHT22;7065;50.880;5.502;2022-11-11T14:11:28;14.30;99.90
13982;DHT22;7065;50.880;5.502;2022-11-11T14:13:56;14.20;99.90
13982;DHT22;7065;50.880;5.502;2022-11-11T14:22:03;14.10;99.90
13982;DHT22;7065;50.880;5.502;2022-11-11T14:24:48;14.00;99.90
13982;DHT22;7065;50.880;5.502;2022-11-11T14:27:16;13.90;99.90
13982;DHT22;7065;50.880;5.502;2022-11-11T14:29:51;13.90;99.90
13982;DHT22;7065;50.880;5.502;2022-11-11T14:40:31;13.80;99.90
13982;DHT22;7065;50.880;5.502;2022-11-11T14:42:58;13.70;99.90
13982;DHT22;7065;50.880;5.502;2022-11-11T14:47:59;13.60;99.90
13982;DHT22;7065;50.880;5.502;2022-11-11T14:53:29;13.50;99.90
13982;DHT22;7065;50.880;5.502;2022-11-11T14:55:59;13.40;99.90
13982;DHT22;7065;50.880;5.502;2022-11-11T14:58:32;13.40;99.90
13982;DHT22;7065;50.880;5.502;2022-11-11T15:01:17;13.40;99.90
13982;DHT22;7065;50.880;5.502;2022-11-11T15:03:47;13.40;99.90
13982;DHT22;7065;50.880;5.502;2022-11-11T15:09:01;13.20;99.90
13982;DHT22;7065;50.880;5.502;2022-11-11T15:11:54;13.10;99.90
13982;DHT22;7065;50.880;5.502;2022-11-11T15:14:29;13.00;99.90
13982;DHT22;7065;50.880;5.502;2022-11-11T15:30:16;12.30;99.90
13982;DHT22;7065;50.880;5.502;2022-11-11T15:32:59;12.10;99.90
13982;DHT22;7065;50.880;5.502;2022-11-11T15:37:58;11.90;99.90
13982;DHT22;7065;50.880;5.502;2022-11-11T15:40:26;11.70;99.90
13982;DHT22;7065;50.880;5.502;2022-11-11T15:42:55;11.60;99.90
13982;DHT22;7065;50.880;5.502;2022-11-11T15:45:23;11.50;99.90
13982;DHT22;7065;50.880;5.502;2022-11-11T15:47:50;11.40;99.90
13982;DHT22;7065;50.880;5.502;2022-11-11T15:52:57;11.20;99.90
13982;DHT22;7065;50.880;5.502;2022-11-11T15:55:30;11.00;99.90
13982;DHT22;7065;50.880;5.502;2022-11-11T15:58:09;10.90;99.90
13982;DHT22;7065;50.880;5.502;2022-11-11T16:00:36;10.80;99.90
13982;DHT22;7065;50.880;5.502;2022-11-11T16:03:03;10.60;99.90
13982;DHT22;7065;50.880;5.502;2022-11-11T16:05:30;10.50;99.90
13982;DHT22;7065;50.880;5.502;2022-11-11T16:08:18;10.40;99.90
13982;DHT22;7065;50.880;5.502;2022-11-11T16:10:55;10.30;99.90
13982;DHT22;7065;50.880;5.502;2022-11-11T16:13:55;10.20;99.90
13982;DHT22;7065;50.880;5.502;2022-11-11T16:16:25;10.10;99.90
13982;DHT22;7065;50.880;5.502;2022-11-11T16:19:14;10.00;99.90
13982;DHT22;7065;50.880;5.502;2022-11-11T16:21:51;9.90;99.90
13982;DHT22;7065;50.880;5.502;2022-11-11T16:24:29;9.80;99.90
13982;DHT22;7065;50.880;5.502;2022-11-11T16:26:56;9.70;99.90
13982;DHT22;7065;50.880;5.502;2022-11-11T16:29:28;9.60;99.90
13982;DHT22;7065;50.880;5.502;2022-11-11T16:31:55;9.50;99.90
13982;DHT22;7065;50.880;5.502;2022-11-11T16:37:02;9.30;99.90
13982;DHT22;7065;50.880;5.502;2022-11-11T16:39:29;9.20;99.90
13982;DHT22;7065;50.880;5.502;2022-11-11T16:42:02;9.10;99.90
13982;DHT22;7065;50.880;5.502;2022-11-11T16:46:57;8.90;99.90
13982;DHT22;7065;50.880;5.502;2022-11-11T16:49:38;8.80;99.90
13982;DHT22;7065;50.880;5.502;2022-11-11T16:52:20;8.70;99.90
13982;DHT22;7065;50.880;5.502;2022-11-11T16:54:50;8.60;99.90
13982;DHT22;7065;50.880;5.502;2022-11-11T16:57:20;8.60;99.90
13982;DHT22;7065;50.880;5.502;2022-11-11T16:59:50;8.50;99.90
13982;DHT22;7065;50.880;5.502;2022-11-11T17:02:20;8.50;99.90
13982;DHT22;7065;50.880;5.502;2022-11-11T17:04:52;8.40;99.90
13982;DHT22;7065;50.880;5.502;2022-11-11T17:07:31;8.40;99.90
13982;DHT22;7065;50.880;5.502;2022-11-11T17:10:13;8.30;99.90
13982;DHT22;7065;50.880;5.502;2022-11-11T17:12:39;8.30;99.90
13982;DHT22;7065;50.880;5.502;2022-11-11T17:15:11;8.30;99.90
13982;DHT22;7065;50.880;5.502;2022-11-11T17:17:37;8.30;99.90
13982;DHT22;7065;50.880;5.502;2022-11-11T17:20:19;8.20;99.90
13982;DHT22;7065;50.880;5.502;2022-11-11T17:22:49;8.10;99.90
13982;DHT22;7065;50.880;5.502;2022-11-11T17:25:15;8.10;99.90
13982;DHT22;7065;50.880;5.502;2022-11-11T17:27:41;8.00;99.90
13982;DHT22;7065;50.880;5.502;2022-11-11T17:30:08;8.00;99.90
13982;DHT22;7065;50.880;5.502;2022-11-11T17:32:34;8.00;99.90
13982;DHT22;7065;50.880;5.502;2022-11-11T17:35:00;8.00;99.90
13982;DHT22;7065;50.880;5.502;2022-11-11T17:37:25;8.00;99.90
13982;DHT22;7065;50.880;5.502;2022-11-11T17:39:51;8.00;99.90
13982;DHT22;7065;50.880;5.502;2022-11-11T17:42:17;8.10;99.90
13982;DHT22;7065;50.880;5.502;2022-11-11T17:44:43;8.00;99.90
13982;DHT22;7065;50.880;5.502;2022-11-11T17:47:09;8.00;99.90
13982;DHT22;7065;50.880;5.502;2022-11-11T17:49:34;7.90;99.90
13982;DHT22;7065;50.880;5.502;2022-11-11T17:52:00;7.90;99.90
13982;DHT22;7065;50.880;5.502;2022-11-11T17:54:26;7.90;99.90
13982;DHT22;7065;50.880;5.502;2022-11-11T17:56:53;7.80;99.90
13982;DHT22;7065;50.880;5.502;2022-11-11T17:59:19;7.80;99.90
13982;DHT22;7065;50.880;5.502;2022-11-11T18:01:44;7.70;99.90
13982;DHT22;7065;50.880;5.502;2022-11-11T18:04:10;7.60;99.90
13982;DHT22;7065;50.880;5.502;2022-11-11T18:06:37;7.50;99.90
13982;DHT22;7065;50.880;5.502;2022-11-11T18:09:02;7.40;99.90
13982;DHT22;7065;50.880;5.502;2022-11-11T18:11:28;7.40;99.90
13982;DHT22;7065;50.880;5.502;2022-11-11T18:13:54;7.30;99.90
13982;DHT22;7065;50.880;5.502;2022-11-11T18:16:21;7.30;99.90
13982;DHT22;7065;50.880;5.502;2022-11-11T18:18:46;7.30;99.90
13982;DHT22;7065;50.880;5.502;2022-11-11T18:21:12;7.20;99.90
13982;DHT22;7065;50.880;5.502;2022-11-11T18:23:39;7.30;99.90
13982;DHT22;7065;50.880;5.502;2022-11-11T18:26:06;7.20;99.90
13982;DHT22;7065;50.880;5.502;2022-11-11T18:28:37;7.20;99.90
13982;DHT22;7065;50.880;5.502;2022-11-11T18:31:05;7.20;99.90
13982;DHT22;7065;50.880;5.502;2022-11-11T18:33:31;7.20;99.90
13982;DHT22;7065;50.880;5.502;2022-11-11T18:36:09;7.20;99.90
13982;DHT22;7065;50.880;5.502;2022-11-11T18:38:35;7.20;99.90
13982;DHT22;7065;50.880;5.502;2022-11-11T18:43:35;7.10;99.90
13982;DHT22;7065;50.880;5.502;2022-11-11T18:46:11;7.10;99.90
13982;DHT22;7065;50.880;5.502;2022-11-11T18:48:37;7.00;99.90
13982;DHT22;7065;50.880;5.502;2022-11-11T18:51:04;7.00;99.90
13982;DHT22;7065;50.880;5.502;2022-11-11T18:53:32;6.90;99.90